createdAt,value
2022-09-05T00:00:12.888Z,22.50
2022-09-05T00:01:31.934Z,22.53
2022-09-05T00:02:34.216Z,22.23
2022-09-05T00:04:24.472Z,22.51
2022-09-05T00:06:02.397Z,22.58
2022-09-05T00:07:11.789Z,22.71
2022-09-05T00:08:40.084Z,22.47
2022-09-05T00:10:11.449Z,22.52
2022-09-05T00:11:40.868Z,22.24
2022-09-05T00:12:46.478Z,22.19
2022-09-05T00:14:15.006Z,22.25
2022-09-05T00:15:44.705Z,21.94
2022-09-05T00:16:56.426Z,22.04
2022-09-05T00:23:03.770Z,22.13
2022-09-05T00:24:23.214Z,21.90
2022-09-05T00:24:26.686Z,22.31
2022-09-05T00:24:31.786Z,22.17
2022-09-05T00:24:42.666Z,22.16
2022-09-05T00:26:17.202Z,22.34
2022-09-05T00:27:36.454Z,22.21
2022-09-05T00:28:41.712Z,22.11
2022-09-05T00:31:07.504Z,22.15
2022-09-05T00:31:57.416Z,22.38
2022-09-05T00:33:20.947Z,22.11
2022-09-05T00:34:37.765Z,21.89
2022-09-05T00:36:19.182Z,22.09
2022-09-05T00:37:35.360Z,22.05
2022-09-05T00:38:41.503Z,21.93
2022-09-05T00:39:47.904Z,21.63
2022-09-05T00:41:13.396Z,22.02
2022-09-05T00:42:21.397Z,22.05
2022-09-05T00:43:28.298Z,22.06
2022-09-05T00:44:33.102Z,21.85
2022-09-05T00:45:37.613Z,21.84
2022-09-05T00:46:44.738Z,22.09
2022-09-05T00:48:03.664Z,21.98
2022-09-05T00:49:21.399Z,22.19
2022-09-05T00:50:32.263Z,22.19
2022-09-05T00:51:43.659Z,22.12
2022-09-05T00:53:07.563Z,21.93
2022-09-05T00:54:41.756Z,22.13
2022-09-05T00:56:12.047Z,22.02
2022-09-05T00:57:39.759Z,22.17
2022-09-05T00:59:15.564Z,22.24
2022-09-05T01:00:21.281Z,22.05
2022-09-05T01:01:26.536Z,22.01
2022-09-05T01:02:32.119Z,22.18
2022-09-05T01:04:19.696Z,22.19
2022-09-05T01:05:33.693Z,22.19
2022-09-05T01:07:06.937Z,22.22
2022-09-05T01:08:27.784Z,21.98
2022-09-05T01:09:50.905Z,22.20
2022-09-05T01:11:28.194Z,22.32
2022-09-05T01:12:56.838Z,22.21
2022-09-05T01:14:10.678Z,22.27
2022-09-05T01:15:42.160Z,22.28
2022-09-05T01:17:19.093Z,22.19
2022-09-05T01:18:30.875Z,21.93
2022-09-05T01:19:46.292Z,22.11
2022-09-05T01:21:19.617Z,22.03
2022-09-05T01:22:39.212Z,21.57
2022-09-05T01:23:54.553Z,21.99
2022-09-05T01:25:02.479Z,22.08
2022-09-05T01:26:29.097Z,22.10
2022-09-05T01:29:13.716Z,22.21
2022-09-05T01:30:18.624Z,22.30
2022-09-05T01:31:37.222Z,22.06
2022-09-05T01:33:17.791Z,22.26
2022-09-05T01:34:33.695Z,22.21
2022-09-05T01:36:04.490Z,22.25
2022-09-05T01:37:33.131Z,22.00
2022-09-05T01:38:57.996Z,21.67
2022-09-05T01:40:39.214Z,22.05
2022-09-05T01:42:12.516Z,22.09
2022-09-05T01:43:31.102Z,21.95
2022-09-05T01:44:57.544Z,22.17
2022-09-05T01:46:17.829Z,22.07
2022-09-05T01:47:45.042Z,21.95
2022-09-05T01:49:08.905Z,22.02
2022-09-05T01:50:36.153Z,22.13
2022-09-05T01:51:50.025Z,22.08
2022-09-05T01:53:29.721Z,22.22
2022-09-05T01:54:56.714Z,22.18
2022-09-05T01:56:32.338Z,22.33
2022-09-05T01:57:55.584Z,22.11
2022-09-05T01:59:16.295Z,21.83
2022-09-05T02:00:40.038Z,22.24
2022-09-05T02:01:57.573Z,22.16
2022-09-05T02:03:17.753Z,22.02
2022-09-05T02:04:30.473Z,21.83
2022-09-05T02:05:47.537Z,22.21
2022-09-05T02:07:31.122Z,22.13
2022-09-05T02:08:52.369Z,21.66
2022-09-05T02:10:32.929Z,22.07
2022-09-05T02:12:05.920Z,21.99
2022-09-05T02:13:35.980Z,22.12
2022-09-05T02:14:45.816Z,22.03
2022-09-05T02:15:59.820Z,21.95
2022-09-05T02:17:49.742Z,22.03
2022-09-05T02:19:09.503Z,22.08
2022-09-05T02:20:24.401Z,21.98
2022-09-05T02:21:29.494Z,21.98
2022-09-05T02:22:43.796Z,21.94
2022-09-05T02:24:03.340Z,22.03
2022-09-05T02:26:00.534Z,22.01
2022-09-05T02:26:51.895Z,21.95
2022-09-05T02:28:06.292Z,21.92
2022-09-05T02:29:28.929Z,21.91
2022-09-05T02:30:50.366Z,21.96
2022-09-05T02:32:18.331Z,21.91
2022-09-05T02:33:30.846Z,21.83
2022-09-05T02:35:07.483Z,21.80
2022-09-05T02:36:23.942Z,21.84
2022-09-05T02:38:54.390Z,21.74
2022-09-05T02:42:57.765Z,21.76
2022-09-05T02:45:06.971Z,21.97
2022-09-05T02:45:20.203Z,21.81
2022-09-05T02:45:20.664Z,21.88
2022-09-05T02:45:27.818Z,21.62
2022-09-05T02:46:49.391Z,21.51
2022-09-05T02:47:59.077Z,21.92
2022-09-05T02:50:00.188Z,21.78
2022-09-05T02:53:52.074Z,21.85
2022-09-05T02:56:42.507Z,21.75
2022-09-05T02:57:32.759Z,21.65
2022-09-05T02:57:34.739Z,21.76
2022-09-05T02:57:35.594Z,21.86
2022-09-05T02:58:15.002Z,21.82
2022-09-05T02:59:45.506Z,21.83
2022-09-05T03:01:11.732Z,21.89
2022-09-05T03:02:26.442Z,21.78
2022-09-05T03:03:39.259Z,21.77
2022-09-05T03:04:51.094Z,21.82
2022-09-05T03:06:34.562Z,21.77
2022-09-05T03:07:54.880Z,21.80
2022-09-05T03:09:19.772Z,21.50
2022-09-05T03:10:54.155Z,21.46
2022-09-05T03:12:34.484Z,21.88
2022-09-05T03:14:04.405Z,21.86
2022-09-05T03:15:44.277Z,21.85
2022-09-05T03:17:23.804Z,21.83
2022-09-05T03:19:06.908Z,21.77
2022-09-05T03:21:09.145Z,21.78
2022-09-05T03:22:47.601Z,21.82
2022-09-05T03:24:08.894Z,21.79
2022-09-05T03:25:36.133Z,21.63
2022-09-05T03:27:32.000Z,21.70
2022-09-05T03:29:02.003Z,21.72
2022-09-05T03:30:08.813Z,21.59
2022-09-05T03:31:30.111Z,21.51
2022-09-05T03:32:50.850Z,21.59
2022-09-05T03:33:58.799Z,21.47
2022-09-05T03:35:33.265Z,21.70
2022-09-05T03:36:47.604Z,21.33
2022-09-05T03:38:10.106Z,21.52
2022-09-05T03:40:17.062Z,21.59
2022-09-05T03:41:39.994Z,21.27
2022-09-05T03:43:03.887Z,21.62
2022-09-05T03:44:31.661Z,21.64
2022-09-05T03:45:54.053Z,21.61
2022-09-05T03:47:21.982Z,21.58
2022-09-05T03:48:30.274Z,21.57
2022-09-05T03:52:34.180Z,21.26
2022-09-05T03:57:10.525Z,21.64
2022-09-05T03:57:12.923Z,21.35
2022-09-05T03:57:15.201Z,21.64
2022-09-05T03:57:15.713Z,21.63
2022-09-05T03:57:56.255Z,21.57
2022-09-05T03:59:43.305Z,21.66
2022-09-05T04:01:17.537Z,21.69
2022-09-05T04:07:03.604Z,21.56
2022-09-05T04:08:10.906Z,21.59
2022-09-05T04:08:17.422Z,21.48
2022-09-05T04:08:19.557Z,21.44
2022-09-05T04:08:58.387Z,21.65
2022-09-05T04:10:29.117Z,21.45
2022-09-05T04:11:48.187Z,21.61
2022-09-05T04:12:55.264Z,21.59
2022-09-05T04:14:26.632Z,21.68
2022-09-05T04:16:05.169Z,21.66
2022-09-05T04:17:17.131Z,21.52
2022-09-05T04:18:32.935Z,21.27
2022-09-05T04:19:49.975Z,21.49
2022-09-05T04:21:12.009Z,21.53
2022-09-05T04:22:48.438Z,21.59
2022-09-05T04:24:09.909Z,21.51
2022-09-05T04:25:42.915Z,21.46
2022-09-05T04:26:47.838Z,21.39
2022-09-05T04:28:20.889Z,21.45
2022-09-05T04:29:35.496Z,21.44
2022-09-05T04:30:49.122Z,21.46
2022-09-05T04:32:19.651Z,21.41
2022-09-05T04:33:36.605Z,21.34
2022-09-05T04:34:45.434Z,21.36
2022-09-05T04:36:17.892Z,21.30
2022-09-05T04:37:47.691Z,21.38
2022-09-05T04:39:05.543Z,21.52
2022-09-05T04:40:35.419Z,21.42
2022-09-05T04:41:45.846Z,21.22
2022-09-05T04:42:49.672Z,21.14
2022-09-05T04:43:53.361Z,21.18
2022-09-05T04:45:11.583Z,21.22
2022-09-05T04:46:20.859Z,21.32
2022-09-05T04:47:38.910Z,21.26
2022-09-05T04:49:13.381Z,21.16
2022-09-05T04:50:24.197Z,21.09
2022-09-05T04:52:00.158Z,21.25
2022-09-05T04:53:33.264Z,21.26
2022-09-05T04:54:52.255Z,21.38
2022-09-05T04:55:57.875Z,21.07
2022-09-05T04:57:14.335Z,21.40
2022-09-05T05:00:54.284Z,21.37
2022-09-05T05:05:59.562Z,21.33
2022-09-05T05:06:02.225Z,21.19
2022-09-05T05:06:12.921Z,21.04
2022-09-05T05:06:16.112Z,21.34
2022-09-05T05:06:38.389Z,21.17
2022-09-05T05:07:51.220Z,21.39
2022-09-05T05:09:05.241Z,21.32
2022-09-05T05:12:56.952Z,21.32
2022-09-05T05:17:57.610Z,21.42
2022-09-05T05:18:01.161Z,21.40
2022-09-05T05:18:07.222Z,21.46
2022-09-05T05:18:13.565Z,21.37
2022-09-05T05:18:53.284Z,21.62
2022-09-05T05:20:42.882Z,21.73
2022-09-05T05:21:48.474Z,21.54
2022-09-05T05:23:12.924Z,21.66
2022-09-05T05:24:22.205Z,21.55
2022-09-05T05:25:26.377Z,21.45
2022-09-05T05:26:36.141Z,21.56
2022-09-05T05:27:46.521Z,21.56
2022-09-05T05:28:54.464Z,21.38
2022-09-05T05:30:08.717Z,21.59
2022-09-05T05:31:18.825Z,21.60
2022-09-05T05:32:44.931Z,21.78
2022-09-05T05:33:51.783Z,21.74
2022-09-05T05:35:23.479Z,21.81
2022-09-05T05:36:40.613Z,22.03
2022-09-05T05:37:50.455Z,21.82
2022-09-05T05:38:56.631Z,21.56
2022-09-05T05:40:02.903Z,21.66
2022-09-05T05:41:16.203Z,21.92
2022-09-05T05:42:25.615Z,21.89
2022-09-05T05:43:37.986Z,22.00
2022-09-05T05:44:40.229Z,21.82
2022-09-05T05:45:44.296Z,21.82
2022-09-05T05:46:58.362Z,22.23
2022-09-05T05:48:06.729Z,22.27
2022-09-05T05:49:31.947Z,22.38
2022-09-05T05:51:03.180Z,22.62
2022-09-05T05:52:05.373Z,22.67
2022-09-05T05:53:43.920Z,22.51
2022-09-05T05:55:11.276Z,22.63
2022-09-05T05:56:28.685Z,22.43
2022-09-05T05:57:45.994Z,22.66
2022-09-05T05:59:09.453Z,22.88
2022-09-05T06:00:51.902Z,22.81
2022-09-05T06:02:12.372Z,22.64
2022-09-05T06:03:27.651Z,22.62
2022-09-05T06:05:14.928Z,22.75
2022-09-05T06:06:38.792Z,22.91
2022-09-05T06:09:28.342Z,22.47
2022-09-05T06:14:52.328Z,22.90
2022-09-05T06:14:55.799Z,22.92
2022-09-05T06:14:56.701Z,22.95
2022-09-05T06:15:21.295Z,23.02
2022-09-05T06:17:19.979Z,22.92
2022-09-05T06:18:50.359Z,22.32
2022-09-05T06:22:04.441Z,22.86
2022-09-05T06:22:26.507Z,22.96
2022-09-05T06:23:39.349Z,22.67
2022-09-05T06:25:11.081Z,23.07
2022-09-05T06:26:53.636Z,23.07
2022-09-05T06:28:18.649Z,22.93
2022-09-05T06:29:38.653Z,22.91
2022-09-05T06:31:27.608Z,22.92
2022-09-05T06:32:49.243Z,23.08
2022-09-05T06:34:33.573Z,23.01
2022-09-05T06:36:04.652Z,23.09
2022-09-05T06:37:38.035Z,23.07
2022-09-05T06:38:58.410Z,23.19
2022-09-05T06:40:00.707Z,22.86
2022-09-05T06:41:31.740Z,23.27
2022-09-05T06:42:52.093Z,22.91
2022-09-05T06:44:37.625Z,23.52
2022-09-05T06:45:59.208Z,23.50
2022-09-05T06:47:24.356Z,23.66
2022-09-05T06:49:29.811Z,23.83
2022-09-05T06:50:48.187Z,23.68
2022-09-05T06:52:36.095Z,23.76
2022-09-05T06:54:06.051Z,23.86
2022-09-05T06:55:41.812Z,23.84
2022-09-05T06:57:30.729Z,23.85
2022-09-05T06:59:10.295Z,23.85
2022-09-05T07:00:47.838Z,23.96
2022-09-05T07:02:00.367Z,23.89
2022-09-05T07:03:40.462Z,24.08
2022-09-05T07:05:23.619Z,23.95
2022-09-05T07:06:49.411Z,24.09
2022-09-05T07:08:18.440Z,23.77
2022-09-05T07:09:52.129Z,23.78
2022-09-05T07:11:16.743Z,23.93
2022-09-05T07:12:30.244Z,24.01
2022-09-05T07:13:45.610Z,24.35
2022-09-05T07:14:53.470Z,24.66
2022-09-05T07:16:26.673Z,24.73
2022-09-05T07:18:08.584Z,24.48
2022-09-05T07:19:29.243Z,24.92
2022-09-05T07:21:16.257Z,25.42
2022-09-05T07:22:48.434Z,26.12
2022-09-05T07:24:10.470Z,26.94
2022-09-05T07:25:18.720Z,27.44
2022-09-05T07:26:49.689Z,27.71
2022-09-05T07:28:26.476Z,28.50
2022-09-05T07:29:24.285Z,28.95
2022-09-05T07:30:26.962Z,28.76
2022-09-05T07:31:38.062Z,29.37
2022-09-05T07:32:45.638Z,29.79
2022-09-05T07:33:48.336Z,29.98
2022-09-05T07:34:52.846Z,30.12
2022-09-05T07:36:03.374Z,30.50
2022-09-05T07:37:22.591Z,29.97
2022-09-05T07:38:49.058Z,29.32
2022-09-05T07:39:53.974Z,28.54
2022-09-05T07:41:08.357Z,28.14
2022-09-05T07:42:26.418Z,28.05
2022-09-05T07:43:39.391Z,28.32
2022-09-05T07:44:56.851Z,29.28
2022-09-05T07:45:59.035Z,29.10
2022-09-05T07:47:14.718Z,29.25
2022-09-05T07:48:34.376Z,29.92
2022-09-05T07:49:50.544Z,29.87
2022-09-05T07:55:10.986Z,29.38
2022-09-05T07:56:52.992Z,30.73
2022-09-05T07:56:55.497Z,29.68
2022-09-05T07:57:16.008Z,29.93
2022-09-05T07:58:52.847Z,31.48
2022-09-05T08:00:26.896Z,31.34
2022-09-05T08:01:32.933Z,31.04
2022-09-05T08:02:47.045Z,31.13
2022-09-05T08:04:00.379Z,31.50
2022-09-05T08:05:08.562Z,30.40
2022-09-05T08:06:55.790Z,30.65
2022-09-05T08:07:52.799Z,30.82
2022-09-05T08:09:21.461Z,31.00
2022-09-05T08:10:35.642Z,31.68
2022-09-05T08:12:09.617Z,32.17
2022-09-05T08:13:24.457Z,31.92
2022-09-05T08:15:03.891Z,31.20
2022-09-05T08:16:13.137Z,31.31
2022-09-05T08:17:20.441Z,31.77
2022-09-05T08:18:51.617Z,32.56
2022-09-05T08:20:15.087Z,33.08
2022-09-05T08:21:27.329Z,32.70
2022-09-05T08:22:54.865Z,31.96
2022-09-05T08:24:13.634Z,32.23
2022-09-05T08:25:27.487Z,32.78
2022-09-05T08:27:03.074Z,32.70
2022-09-05T08:28:20.371Z,32.47
2022-09-05T08:29:31.894Z,32.66
2022-09-05T08:30:44.062Z,31.99
2022-09-05T08:31:52.626Z,32.56
2022-09-05T08:33:11.414Z,33.20
2022-09-05T08:34:31.482Z,34.12
2022-09-05T08:36:01.266Z,34.41
2022-09-05T08:37:05.247Z,34.22
2022-09-05T08:38:08.864Z,34.59
2022-09-05T08:39:12.709Z,34.03
2022-09-05T08:40:20.844Z,34.08
2022-09-05T08:41:50.250Z,33.46
2022-09-05T08:43:53.179Z,32.96
2022-09-05T08:46:35.742Z,32.92
2022-09-05T08:46:49.845Z,33.33
2022-09-05T08:48:09.447Z,33.20
2022-09-05T08:49:46.896Z,33.56
2022-09-05T08:51:05.139Z,33.53
2022-09-05T08:52:33.677Z,34.38
2022-09-05T08:53:46.665Z,34.81
2022-09-05T08:55:08.932Z,34.19
2022-09-05T08:56:49.404Z,34.07
2022-09-05T08:58:07.942Z,34.01
2022-09-05T08:59:36.013Z,34.29
2022-09-05T09:00:50.633Z,34.06
2022-09-05T09:02:46.729Z,35.36
2022-09-05T09:04:11.400Z,35.65
2022-09-05T09:06:12.483Z,36.27
2022-09-05T09:07:51.746Z,35.70
2022-09-05T09:08:57.151Z,36.56
2022-09-05T09:10:34.919Z,36.14
2022-09-05T09:11:52.280Z,36.20
2022-09-05T09:13:30.474Z,35.60
2022-09-05T09:14:44.586Z,36.28
2022-09-05T09:16:04.674Z,36.56
2022-09-05T09:17:19.024Z,36.88
2022-09-05T09:18:34.109Z,36.89
2022-09-05T09:20:10.030Z,37.15
2022-09-05T09:21:35.470Z,37.71
2022-09-05T09:23:02.833Z,38.42
2022-09-05T09:24:38.365Z,38.36
2022-09-05T09:25:43.467Z,37.92
2022-09-05T09:26:58.749Z,38.05
2022-09-05T09:28:49.556Z,38.13
2022-09-05T09:30:01.401Z,38.08
2022-09-05T09:31:37.526Z,39.01
2022-09-05T09:32:49.054Z,38.65
2022-09-05T09:34:09.227Z,39.44
2022-09-05T09:35:24.003Z,39.65
2022-09-05T09:36:46.406Z,40.12
2022-09-05T09:38:02.461Z,40.19
2022-09-05T09:39:37.720Z,40.16
2022-09-05T09:40:36.059Z,40.03
2022-09-05T09:41:56.585Z,39.44
2022-09-05T09:43:20.470Z,38.96
2022-09-05T09:44:55.359Z,38.51
2022-09-05T09:46:00.260Z,37.43
2022-09-05T09:47:12.898Z,37.94
2022-09-05T09:48:52.823Z,38.23
2022-09-05T09:50:17.839Z,38.12
2022-09-05T09:51:54.604Z,37.04
2022-09-05T09:53:14.941Z,36.71
2022-09-05T09:54:29.057Z,37.52
2022-09-05T09:55:52.866Z,37.62
2022-09-05T09:57:14.543Z,37.12
2022-09-05T09:58:31.250Z,37.70
2022-09-05T10:00:13.450Z,38.59
2022-09-05T10:01:53.259Z,38.96
2022-09-05T10:10:09.984Z,38.62
2022-09-05T10:10:39.862Z,38.90
2022-09-05T10:10:45.885Z,39.74
2022-09-05T10:10:54.213Z,39.98
2022-09-05T10:11:09.183Z,40.25
2022-09-05T10:11:55.636Z,40.93
2022-09-05T10:13:17.299Z,41.15
2022-09-05T10:14:49.658Z,41.96
2022-09-05T10:16:27.136Z,42.19
2022-09-05T10:17:38.753Z,41.59
2022-09-05T10:18:57.630Z,42.26
2022-09-05T10:20:23.235Z,42.37
2022-09-05T10:21:28.242Z,42.32
2022-09-05T10:22:48.930Z,43.31
2022-09-05T10:24:15.408Z,42.33
2022-09-05T10:25:48.559Z,42.36
2022-09-05T10:27:15.502Z,41.42
2022-09-05T10:28:55.945Z,41.45
2022-09-05T10:33:03.812Z,40.75
2022-09-05T10:35:09.783Z,39.58
2022-09-05T10:35:12.999Z,39.09
2022-09-05T10:35:23.696Z,38.46
2022-09-05T10:36:31.643Z,37.77
2022-09-05T10:37:43.559Z,37.73
2022-09-05T10:38:52.737Z,37.80
2022-09-05T10:39:58.157Z,37.18
2022-09-05T10:41:22.173Z,37.31
2022-09-05T10:42:35.143Z,38.17
2022-09-05T10:44:04.502Z,37.79
2022-09-05T10:45:38.046Z,38.08
2022-09-05T10:46:52.082Z,38.06
2022-09-05T10:48:19.678Z,37.98
2022-09-05T10:49:27.026Z,37.27
2022-09-05T10:50:36.521Z,37.67
2022-09-05T10:51:51.970Z,37.83
2022-09-05T10:53:00.372Z,38.74
2022-09-05T10:54:24.518Z,38.42
2022-09-05T10:55:41.684Z,38.56
2022-09-05T10:56:51.937Z,38.30
2022-09-05T11:02:18.608Z,38.85
2022-09-05T11:02:23.405Z,38.33
2022-09-05T11:02:34.869Z,37.37
2022-09-05T11:03:56.851Z,38.33
2022-09-05T11:05:08.225Z,38.09
2022-09-05T11:06:20.955Z,38.05
2022-09-05T11:07:42.633Z,38.63
2022-09-05T11:08:47.829Z,37.60
2022-09-05T11:10:02.791Z,38.48
2022-09-05T11:11:11.255Z,37.50
2022-09-05T11:13:05.847Z,37.12
2022-09-05T11:14:28.623Z,36.79
2022-09-05T11:16:10.313Z,37.27
2022-09-05T11:17:49.153Z,37.66
2022-09-05T11:19:00.681Z,38.14
2022-09-05T11:20:39.799Z,38.76
2022-09-05T11:22:19.890Z,38.06
2022-09-05T11:23:35.513Z,38.55
2022-09-05T11:24:43.737Z,37.98
2022-09-05T11:25:47.765Z,38.74
2022-09-05T11:27:24.914Z,37.93
2022-09-05T11:28:57.544Z,38.13
2022-09-05T11:30:08.042Z,38.20
2022-09-05T11:31:18.393Z,38.50
2022-09-05T11:39:47.121Z,38.79
2022-09-05T11:39:53.152Z,38.65
2022-09-05T11:39:53.715Z,40.01
2022-09-05T11:39:59.643Z,39.27
2022-09-05T11:40:06.567Z,40.87
2022-09-05T11:41:29.649Z,41.48
2022-09-05T11:43:06.929Z,40.99
2022-09-05T11:44:26.004Z,41.55
2022-09-05T11:45:38.046Z,42.55
2022-09-05T11:47:30.092Z,40.65
2022-09-05T11:48:53.356Z,41.08
2022-09-05T11:49:55.856Z,39.79
2022-09-05T11:51:19.658Z,40.45
2022-09-05T11:52:44.689Z,40.16
2022-09-05T11:54:08.431Z,40.06
2022-09-05T11:55:23.853Z,40.02
2022-09-05T11:56:28.855Z,39.37
2022-09-05T11:57:34.236Z,39.68
2022-09-05T11:59:05.245Z,40.25
2022-09-05T12:00:31.154Z,40.12
2022-09-05T12:02:23.321Z,39.52
2022-09-05T12:04:03.697Z,39.85
2022-09-05T12:05:48.409Z,40.79
2022-09-05T12:07:30.033Z,41.82
2022-09-05T12:09:03.292Z,41.74
2022-09-05T12:10:09.873Z,42.03
2022-09-05T12:12:39.529Z,42.13
2022-09-05T12:13:54.817Z,42.47
2022-09-05T12:15:22.234Z,42.00
2022-09-05T12:16:36.189Z,40.99
2022-09-05T12:18:04.315Z,41.32
2022-09-05T12:19:49.026Z,40.87
2022-09-05T12:21:20.715Z,41.88
2022-09-05T12:22:59.062Z,42.53
2022-09-05T12:24:54.966Z,42.52
2022-09-05T12:27:40.841Z,42.25
2022-09-05T12:27:45.034Z,42.32
2022-09-05T12:29:26.867Z,42.85
2022-09-05T12:30:15.298Z,42.14
2022-09-05T12:32:59.455Z,41.95
2022-09-05T12:36:04.817Z,42.51
2022-09-05T12:36:06.371Z,42.77
2022-09-05T12:39:40.315Z,41.14
2022-09-05T12:40:58.479Z,39.94
2022-09-05T12:41:38.189Z,40.19
2022-09-05T12:41:45.178Z,40.43
2022-09-05T12:44:38.704Z,40.87
2022-09-05T12:45:08.969Z,41.21
2022-09-05T12:46:27.277Z,40.19
2022-09-05T12:47:30.453Z,39.82
2022-09-05T12:48:42.810Z,40.72
2022-09-05T12:50:02.774Z,41.40
2022-09-05T12:51:08.625Z,41.91
2022-09-05T12:52:14.324Z,42.05
2022-09-05T12:53:21.050Z,41.52
2022-09-05T12:54:34.688Z,41.14
2022-09-05T12:55:52.110Z,40.10
2022-09-05T13:02:27.835Z,39.90
2022-09-05T13:03:02.514Z,40.35
2022-09-05T13:03:03.137Z,39.77
2022-09-05T13:03:04.085Z,40.34
2022-09-05T13:03:37.916Z,39.90
2022-09-05T13:05:01.813Z,40.37
2022-09-05T13:06:24.711Z,40.40
2022-09-05T13:07:57.038Z,40.68
2022-09-05T13:09:08.611Z,41.27
2022-09-05T13:11:10.078Z,40.94
2022-09-05T13:14:48.703Z,40.54
2022-09-05T13:14:56.949Z,39.91
2022-09-05T13:15:11.411Z,38.84
2022-09-05T13:16:23.644Z,38.81
2022-09-05T13:17:43.084Z,38.71
2022-09-05T13:18:47.989Z,37.89
2022-09-05T13:19:51.832Z,38.07
2022-09-05T13:21:27.167Z,39.27
2022-09-05T13:22:30.082Z,38.40
2022-09-05T13:23:50.452Z,38.36
2022-09-05T13:25:04.772Z,38.34
2022-09-05T13:26:23.732Z,37.82
2022-09-05T13:27:34.550Z,37.72
2022-09-05T13:28:57.172Z,38.19
2022-09-05T13:32:03.883Z,38.39
2022-09-05T13:37:54.159Z,38.16
2022-09-05T13:38:02.656Z,38.37
2022-09-05T13:38:05.479Z,38.07
2022-09-05T13:38:11.032Z,38.03
2022-09-05T13:38:19.753Z,38.62
2022-09-05T13:39:12.957Z,37.34
2022-09-05T13:40:20.205Z,36.73
2022-09-05T13:41:29.099Z,37.13
2022-09-05T13:42:38.595Z,37.35
2022-09-05T13:43:44.977Z,37.57
2022-09-05T13:44:53.820Z,38.39
2022-09-05T13:46:09.592Z,38.45
2022-09-05T13:47:30.142Z,38.78
2022-09-05T13:50:33.249Z,38.84
2022-09-05T13:51:43.836Z,38.79
2022-09-05T13:52:55.138Z,39.14
2022-09-05T13:54:03.574Z,39.17
2022-09-05T13:55:41.839Z,38.74
2022-09-05T13:57:01.352Z,37.35
2022-09-05T13:58:12.072Z,36.83
2022-09-05T13:59:16.177Z,37.14
2022-09-05T14:00:28.857Z,37.20
2022-09-05T14:02:26.275Z,37.05
2022-09-05T14:03:38.606Z,37.42
2022-09-05T14:05:10.904Z,36.86
2022-09-05T14:06:48.617Z,36.87
2022-09-05T14:08:16.794Z,37.37
2022-09-05T14:09:50.009Z,37.41
2022-09-05T14:11:45.115Z,37.40
2022-09-05T14:13:02.543Z,37.59
2022-09-05T14:15:59.449Z,36.96
2022-09-05T14:18:54.384Z,36.76
2022-09-05T14:20:16.934Z,36.64
2022-09-05T14:21:19.611Z,36.21
2022-09-05T14:22:44.929Z,36.91
2022-09-05T14:24:04.625Z,36.81
2022-09-05T14:25:20.258Z,36.99
2022-09-05T14:26:25.423Z,37.23
2022-09-05T14:27:31.977Z,36.96
2022-09-05T14:28:46.628Z,37.53
2022-09-05T14:29:55.276Z,37.49
2022-09-05T14:34:47.755Z,37.05
2022-09-05T14:37:41.622Z,37.23
2022-09-05T14:37:41.990Z,36.94
2022-09-05T14:37:52.109Z,37.05
2022-09-05T14:38:25.724Z,37.19
2022-09-05T14:39:41.981Z,37.22
2022-09-05T14:41:09.112Z,37.64
2022-09-05T14:42:31.358Z,37.48
2022-09-05T14:43:39.810Z,37.70
2022-09-05T14:45:03.333Z,38.14
2022-09-05T14:46:33.388Z,38.45
2022-09-05T14:47:59.839Z,38.71
2022-09-05T14:49:40.528Z,37.96
2022-09-05T14:50:54.585Z,37.60
2022-09-05T14:51:58.429Z,36.83
2022-09-05T14:57:59.109Z,37.34
2022-09-05T15:02:42.400Z,37.62
2022-09-05T15:02:42.654Z,37.45
2022-09-05T15:02:48.693Z,37.76
2022-09-05T15:02:54.611Z,36.75
2022-09-05T15:05:13.590Z,36.57
2022-09-05T15:06:21.291Z,36.55
2022-09-05T15:07:37.968Z,36.85
2022-09-05T15:11:01.922Z,36.78
2022-09-05T15:12:19.691Z,36.79
2022-09-05T15:12:20.064Z,35.57
2022-09-05T15:13:10.392Z,35.55
2022-09-05T15:14:13.397Z,35.44
2022-09-05T15:15:39.276Z,35.24
2022-09-05T15:16:57.871Z,35.09
2022-09-05T15:18:09.666Z,35.14
2022-09-05T15:19:33.151Z,34.99
2022-09-05T15:20:45.008Z,34.91
2022-09-05T15:21:47.333Z,34.35
2022-09-05T15:22:56.403Z,34.38
2022-09-05T15:24:04.215Z,34.20
2022-09-05T15:25:17.556Z,34.48
2022-09-05T15:26:25.622Z,33.96
2022-09-05T15:27:29.632Z,34.07
2022-09-05T15:28:38.639Z,34.05
2022-09-05T15:29:41.824Z,33.88
2022-09-05T15:30:55.845Z,33.96
2022-09-05T15:32:14.874Z,34.00
2022-09-05T15:33:25.463Z,33.88
2022-09-05T15:34:33.285Z,33.71
2022-09-05T15:35:38.508Z,33.78
2022-09-05T15:36:40.861Z,33.71
2022-09-05T15:37:44.936Z,33.44
2022-09-05T15:38:55.866Z,32.97
2022-09-05T15:40:23.711Z,33.62
2022-09-05T15:41:28.989Z,33.67
2022-09-05T15:42:38.024Z,34.06
2022-09-05T15:44:00.583Z,34.28
2022-09-05T15:45:10.040Z,34.19
2022-09-05T15:46:13.671Z,33.94
2022-09-05T15:47:23.864Z,34.24
2022-09-05T15:48:26.538Z,33.93
2022-09-05T15:49:53.766Z,33.73
2022-09-05T15:50:58.790Z,33.98
2022-09-05T15:52:29.128Z,34.16
2022-09-05T15:53:38.045Z,34.26
2022-09-05T15:54:53.483Z,34.19
2022-09-05T15:56:14.240Z,34.17
2022-09-05T15:57:21.157Z,34.13
2022-09-05T15:58:23.468Z,34.15
2022-09-05T15:59:34.322Z,34.13
2022-09-05T16:00:41.690Z,34.17
2022-09-05T16:01:59.662Z,33.95
2022-09-05T16:04:49.890Z,34.43
2022-09-05T16:10:28.505Z,34.28
2022-09-05T16:10:37.063Z,34.52
2022-09-05T16:10:37.542Z,34.24
2022-09-05T16:10:42.216Z,34.22
2022-09-05T16:10:58.052Z,34.30
2022-09-05T16:13:14.914Z,34.31
2022-09-05T16:14:17.135Z,34.32
2022-09-05T16:19:29.382Z,34.45
2022-09-05T16:23:14.636Z,34.44
2022-09-05T16:23:14.854Z,34.56
2022-09-05T16:23:28.260Z,34.08
2022-09-05T16:23:29.521Z,34.27
2022-09-05T16:23:33.137Z,34.26
2022-09-05T16:24:38.670Z,34.40
2022-09-05T16:26:08.707Z,34.40
2022-09-05T16:27:18.057Z,34.46
2022-09-05T16:28:26.235Z,34.52
2022-09-05T16:29:32.705Z,34.45
2022-09-05T16:30:39.704Z,34.39
2022-09-05T16:31:52.750Z,34.13
2022-09-05T16:33:04.233Z,33.99
2022-09-05T16:34:13.502Z,33.68
2022-09-05T16:35:18.155Z,33.74
2022-09-05T16:36:32.736Z,33.92
2022-09-05T16:37:54.690Z,33.80
2022-09-05T16:39:01.828Z,33.61
2022-09-05T16:40:25.434Z,33.38
2022-09-05T16:41:55.740Z,33.30
2022-09-05T16:43:08.451Z,33.20
2022-09-05T16:44:32.096Z,33.36
2022-09-05T16:46:08.707Z,33.22
2022-09-05T16:47:27.488Z,32.97
2022-09-05T16:48:38.755Z,33.00
2022-09-05T16:49:57.331Z,32.68
2022-09-05T16:51:04.159Z,32.50
2022-09-05T16:52:22.469Z,32.55
2022-09-05T16:53:38.047Z,32.56
2022-09-05T16:55:05.909Z,32.54
2022-09-05T16:56:12.171Z,32.64
2022-09-05T16:57:31.480Z,32.68
2022-09-05T16:58:39.747Z,32.55
2022-09-05T16:59:45.215Z,32.49
2022-09-05T17:01:11.289Z,32.47
2022-09-05T17:02:32.953Z,32.51
2022-09-05T17:03:43.369Z,32.60
2022-09-05T17:05:03.496Z,32.18
2022-09-05T17:06:17.845Z,32.28
2022-09-05T17:07:31.375Z,32.30
2022-09-05T17:08:35.691Z,31.96
2022-09-05T17:09:43.186Z,32.08
2022-09-05T17:10:55.877Z,31.87
2022-09-05T17:12:06.822Z,31.98
2022-09-05T17:13:16.683Z,31.94
2022-09-05T17:14:21.509Z,31.97
2022-09-05T17:18:18.468Z,31.86
2022-09-05T17:18:56.463Z,31.56
2022-09-05T17:20:07.213Z,31.76
2022-09-05T17:21:18.803Z,31.60
2022-09-05T17:25:40.136Z,31.39
2022-09-05T17:29:20.924Z,31.47
2022-09-05T17:29:25.248Z,31.60
2022-09-05T17:29:32.749Z,31.42
2022-09-05T17:29:50.488Z,31.48
2022-09-05T17:31:46.125Z,31.40
2022-09-05T17:32:39.358Z,31.09
2022-09-05T17:33:45.539Z,31.00
2022-09-05T17:35:17.074Z,31.06
2022-09-05T17:36:41.158Z,31.11
2022-09-05T17:38:11.441Z,30.85
2022-09-05T17:39:49.064Z,30.97
2022-09-05T17:41:16.140Z,30.99
2022-09-05T17:42:34.387Z,30.70
2022-09-05T17:43:42.193Z,30.57
2022-09-05T17:45:10.689Z,30.40
2022-09-05T17:46:26.488Z,30.44
2022-09-05T17:47:44.347Z,30.47
2022-09-05T17:49:03.311Z,30.32
2022-09-05T17:50:15.037Z,30.24
2022-09-05T17:51:26.702Z,30.42
2022-09-05T17:52:29.031Z,29.93
2022-09-05T17:53:33.413Z,29.97
2022-09-05T17:54:37.421Z,29.97
2022-09-05T17:55:52.836Z,29.98
2022-09-05T17:56:55.083Z,29.92
2022-09-05T17:58:21.252Z,30.22
2022-09-05T17:59:28.486Z,29.73
2022-09-05T18:00:43.719Z,30.01
2022-09-05T18:02:04.444Z,30.07
2022-09-05T18:03:06.668Z,29.79
2022-09-05T18:04:17.024Z,29.80
2022-09-05T18:05:54.959Z,30.04